sensor_id;sensor_type;location;lat;lon;timestamp;P1;durP1;ratioP1;P2;durP2;ratioP2
69565;SDS011;56777;55.930;37.524;2024-03-02T00:00:01;9.57;;;3.22;;
69565;SDS011;56777;55.930;37.524;2024-03-02T00:02:45;16.20;;;4.55;;
69565;SDS011;56777;55.930;37.524;2024-03-02T00:05:11;8.82;;;3.53;;
69565;SDS011;56777;55.930;37.524;2024-03-02T00:07:45;12.75;;;3.65;;
69565;SDS011;56777;55.930;37.524;2024-03-02T00:10:15;13.32;;;3.85;;
69565;SDS011;56777;55.930;37.524;2024-03-02T00:12:46;9.85;;;3.08;;
69565;SDS011;56777;55.930;37.524;2024-03-02T00:15:39;14.90;;;4.13;;
69565;SDS011;56777;55.930;37.524;2024-03-02T00:18:05;8.48;;;3.08;;
69565;SDS011;56777;55.930;37.524;2024-03-02T00:20:32;10.32;;;3.40;;
69565;SDS011;56777;55.930;37.524;2024-03-02T00:23:04;10.35;;;3.92;;
69565;SDS011;56777;55.930;37.524;2024-03-02T00:25:49;10.35;;;3.47;;
69565;SDS011;56777;55.930;37.524;2024-03-02T00:33:25;10.95;;;3.47;;
69565;SDS011;56777;55.930;37.524;2024-03-02T00:35:53;13.13;;;3.28;;
69565;SDS011;56777;55.930;37.524;2024-03-02T00:38:19;12.05;;;3.00;;
69565;SDS011;56777;55.930;37.524;2024-03-02T00:40:44;13.15;;;3.55;;
69565;SDS011;56777;55.930;37.524;2024-03-02T00:43:16;13.35;;;3.55;;
69565;SDS011;56777;55.930;37.524;2024-03-02T00:45:50;8.13;;;2.80;;
69565;SDS011;56777;55.930;37.524;2024-03-02T00:48:15;8.00;;;3.13;;
69565;SDS011;56777;55.930;37.524;2024-03-02T00:50:41;9.48;;;3.38;;
69565;SDS011;56777;55.930;37.524;2024-03-02T00:53:09;9.23;;;3.25;;
69565;SDS011;56777;55.930;37.524;2024-03-02T00:55:37;7.95;;;2.97;;
69565;SDS011;56777;55.930;37.524;2024-03-02T00:58:03;10.02;;;3.42;;
69565;SDS011;56777;55.930;37.524;2024-03-02T01:00:28;14.30;;;3.58;;
69565;SDS011;56777;55.930;37.524;2024-03-02T01:02:54;10.25;;;2.63;;
69565;SDS011;56777;55.930;37.524;2024-03-02T01:05:19;10.40;;;2.97;;
69565;SDS011;56777;55.930;37.524;2024-03-02T01:07:45;11.50;;;3.47;;
69565;SDS011;56777;55.930;37.524;2024-03-02T01:10:11;9.63;;;3.08;;
69565;SDS011;56777;55.930;37.524;2024-03-02T01:12:36;8.45;;;3.15;;
69565;SDS011;56777;55.930;37.524;2024-03-02T01:15:02;8.48;;;3.30;;
69565;SDS011;56777;55.930;37.524;2024-03-02T01:17:31;8.65;;;2.70;;
69565;SDS011;56777;55.930;37.524;2024-03-02T01:19:56;6.50;;;2.70;;
69565;SDS011;56777;55.930;37.524;2024-03-02T01:22:22;9.98;;;3.50;;
69565;SDS011;56777;55.930;37.524;2024-03-02T01:24:50;12.38;;;3.40;;
69565;SDS011;56777;55.930;37.524;2024-03-02T01:27:16;10.25;;;3.47;;
69565;SDS011;56777;55.930;37.524;2024-03-02T01:29:41;15.55;;;3.47;;
69565;SDS011;56777;55.930;37.524;2024-03-02T01:32:07;10.48;;;3.70;;
69565;SDS011;56777;55.930;37.524;2024-03-02T01:34:32;12.25;;;3.85;;
69565;SDS011;56777;55.930;37.524;2024-03-02T01:36:58;7.20;;;2.65;;
69565;SDS011;56777;55.930;37.524;2024-03-02T01:39:23;14.63;;;3.30;;
69565;SDS011;56777;55.930;37.524;2024-03-02T01:41:49;7.65;;;3.15;;
69565;SDS011;56777;55.930;37.524;2024-03-02T01:44:14;10.05;;;3.80;;
69565;SDS011;56777;55.930;37.524;2024-03-02T01:46:40;13.52;;;3.67;;
69565;SDS011;56777;55.930;37.524;2024-03-02T01:49:06;10.63;;;3.72;;
69565;SDS011;56777;55.930;37.524;2024-03-02T01:51:31;11.95;;;3.25;;
69565;SDS011;56777;55.930;37.524;2024-03-02T01:53:57;9.32;;;3.58;;
69565;SDS011;56777;55.930;37.524;2024-03-02T01:56:22;9.10;;;3.10;;
69565;SDS011;56777;55.930;37.524;2024-03-02T01:58:49;9.43;;;3.75;;
69565;SDS011;56777;55.930;37.524;2024-03-02T02:01:14;13.93;;;3.45;;
69565;SDS011;56777;55.930;37.524;2024-03-02T02:03:41;15.70;;;3.80;;
69565;SDS011;56777;55.930;37.524;2024-03-02T02:06:08;8.43;;;3.63;;
69565;SDS011;56777;55.930;37.524;2024-03-02T02:08:36;10.60;;;3.42;;
69565;SDS011;56777;55.930;37.524;2024-03-02T02:11:02;12.55;;;3.35;;
69565;SDS011;56777;55.930;37.524;2024-03-02T02:13:28;10.32;;;4.20;;
69565;SDS011;56777;55.930;37.524;2024-03-02T02:15:53;13.13;;;4.40;;
69565;SDS011;56777;55.930;37.524;2024-03-02T02:18:19;10.00;;;3.95;;
69565;SDS011;56777;55.930;37.524;2024-03-02T02:20:45;12.27;;;4.03;;
69565;SDS011;56777;55.930;37.524;2024-03-02T02:23:10;17.73;;;6.20;;
69565;SDS011;56777;55.930;37.524;2024-03-02T02:25:38;9.95;;;4.28;;
69565;SDS011;56777;55.930;37.524;2024-03-02T02:28:04;11.90;;;5.05;;
69565;SDS011;56777;55.930;37.524;2024-03-02T02:30:30;15.20;;;5.55;;
69565;SDS011;56777;55.930;37.524;2024-03-02T02:32:57;13.52;;;5.10;;
69565;SDS011;56777;55.930;37.524;2024-03-02T02:35:23;14.00;;;5.07;;
69565;SDS011;56777;55.930;37.524;2024-03-02T02:37:52;15.68;;;6.43;;
69565;SDS011;56777;55.930;37.524;2024-03-02T02:40:19;15.60;;;6.22;;
69565;SDS011;56777;55.930;37.524;2024-03-02T02:42:44;14.90;;;5.85;;
69565;SDS011;56777;55.930;37.524;2024-03-02T02:45:10;14.70;;;5.30;;
69565;SDS011;56777;55.930;37.524;2024-03-02T02:47:40;11.30;;;4.60;;
69565;SDS011;56777;55.930;37.524;2024-03-02T02:50:09;14.27;;;5.55;;
69565;SDS011;56777;55.930;37.524;2024-03-02T02:55:05;15.20;;;5.43;;
69565;SDS011;56777;55.930;37.524;2024-03-02T02:57:32;12.05;;;5.00;;
69565;SDS011;56777;55.930;37.524;2024-03-02T03:00:09;15.18;;;5.13;;
69565;SDS011;56777;55.930;37.524;2024-03-02T03:02:43;12.27;;;4.90;;
69565;SDS011;56777;55.930;37.524;2024-03-02T03:05:12;13.48;;;4.78;;
69565;SDS011;56777;55.930;37.524;2024-03-02T03:07:39;16.90;;;5.25;;
69565;SDS011;56777;55.930;37.524;2024-03-02T03:10:06;14.90;;;5.30;;
69565;SDS011;56777;55.930;37.524;2024-03-02T03:12:32;17.42;;;5.05;;
69565;SDS011;56777;55.930;37.524;2024-03-02T03:14:58;14.25;;;5.20;;
69565;SDS011;56777;55.930;37.524;2024-03-02T03:17:25;22.30;;;6.55;;
69565;SDS011;56777;55.930;37.524;2024-03-02T03:19:51;15.63;;;6.00;;
69565;SDS011;56777;55.930;37.524;2024-03-02T03:22:16;16.85;;;6.53;;
69565;SDS011;56777;55.930;37.524;2024-03-02T03:24:42;14.18;;;5.25;;
69565;SDS011;56777;55.930;37.524;2024-03-02T03:27:08;15.88;;;5.88;;
69565;SDS011;56777;55.930;37.524;2024-03-02T03:29:35;11.52;;;4.70;;
69565;SDS011;56777;55.930;37.524;2024-03-02T03:32:01;14.23;;;6.65;;
69565;SDS011;56777;55.930;37.524;2024-03-02T03:34:27;13.93;;;5.38;;
69565;SDS011;56777;55.930;37.524;2024-03-02T03:36:54;19.08;;;6.80;;
69565;SDS011;56777;55.930;37.524;2024-03-02T03:39:20;14.00;;;5.50;;
69565;SDS011;56777;55.930;37.524;2024-03-02T03:41:45;17.90;;;7.50;;
69565;SDS011;56777;55.930;37.524;2024-03-02T03:44:11;16.13;;;5.97;;
69565;SDS011;56777;55.930;37.524;2024-03-02T03:46:36;15.68;;;6.20;;
69565;SDS011;56777;55.930;37.524;2024-03-02T03:49:02;17.98;;;5.65;;
69565;SDS011;56777;55.930;37.524;2024-03-02T03:51:29;12.77;;;5.85;;
69565;SDS011;56777;55.930;37.524;2024-03-02T03:53:55;18.65;;;7.20;;
69565;SDS011;56777;55.930;37.524;2024-03-02T03:56:21;11.75;;;5.45;;
69565;SDS011;56777;55.930;37.524;2024-03-02T03:58:46;17.75;;;6.15;;
69565;SDS011;56777;55.930;37.524;2024-03-02T04:01:12;14.05;;;7.10;;
69565;SDS011;56777;55.930;37.524;2024-03-02T04:03:38;18.83;;;6.82;;
69565;SDS011;56777;55.930;37.524;2024-03-02T04:06:03;17.63;;;6.03;;
69565;SDS011;56777;55.930;37.524;2024-03-02T04:08:29;17.70;;;6.70;;
69565;SDS011;56777;55.930;37.524;2024-03-02T04:10:55;18.30;;;6.93;;
69565;SDS011;56777;55.930;37.524;2024-03-02T04:13:21;17.17;;;6.50;;
69565;SDS011;56777;55.930;37.524;2024-03-02T04:15:46;19.70;;;8.25;;
69565;SDS011;56777;55.930;37.524;2024-03-02T04:18:12;15.05;;;6.82;;
69565;SDS011;56777;55.930;37.524;2024-03-02T04:20:38;14.25;;;5.50;;
69565;SDS011;56777;55.930;37.524;2024-03-02T04:23:03;15.27;;;6.32;;
69565;SDS011;56777;55.930;37.524;2024-03-02T04:25:29;19.25;;;6.55;;
69565;SDS011;56777;55.930;37.524;2024-03-02T04:27:55;21.40;;;9.18;;
69565;SDS011;56777;55.930;37.524;2024-03-02T04:30:20;15.45;;;7.10;;
69565;SDS011;56777;55.930;37.524;2024-03-02T04:32:46;18.35;;;7.43;;
69565;SDS011;56777;55.930;37.524;2024-03-02T04:35:12;14.98;;;6.35;;
69565;SDS011;56777;55.930;37.524;2024-03-02T04:37:38;17.15;;;6.32;;
69565;SDS011;56777;55.930;37.524;2024-03-02T04:40:04;15.85;;;6.50;;
69565;SDS011;56777;55.930;37.524;2024-03-02T04:42:33;15.10;;;5.90;;
69565;SDS011;56777;55.930;37.524;2024-03-02T04:44:59;14.57;;;6.68;;
69565;SDS011;56777;55.930;37.524;2024-03-02T04:47:25;15.63;;;5.85;;
69565;SDS011;56777;55.930;37.524;2024-03-02T04:49:50;15.38;;;6.18;;
69565;SDS011;56777;55.930;37.524;2024-03-02T04:52:16;13.77;;;5.85;;
69565;SDS011;56777;55.930;37.524;2024-03-02T04:54:42;14.32;;;7.40;;
69565;SDS011;56777;55.930;37.524;2024-03-02T04:57:26;16.33;;;6.38;;
69565;SDS011;56777;55.930;37.524;2024-03-02T04:59:52;15.27;;;7.55;;
69565;SDS011;56777;55.930;37.524;2024-03-02T05:02:17;15.65;;;6.38;;
69565;SDS011;56777;55.930;37.524;2024-03-02T05:04:43;14.07;;;6.43;;
69565;SDS011;56777;55.930;37.524;2024-03-02T05:07:09;18.70;;;6.05;;
69565;SDS011;56777;55.930;37.524;2024-03-02T05:09:34;15.52;;;6.35;;
69565;SDS011;56777;55.930;37.524;2024-03-02T05:12:00;17.63;;;5.93;;
69565;SDS011;56777;55.930;37.524;2024-03-02T05:14:45;13.27;;;5.70;;
69565;SDS011;56777;55.930;37.524;2024-03-02T05:17:10;13.75;;;5.18;;
69565;SDS011;56777;55.930;37.524;2024-03-02T05:19:36;12.75;;;5.35;;
69565;SDS011;56777;55.930;37.524;2024-03-02T05:22:02;16.10;;;5.40;;
69565;SDS011;56777;55.930;37.524;2024-03-02T05:24:28;15.80;;;4.95;;
69565;SDS011;56777;55.930;37.524;2024-03-02T05:26:54;12.73;;;5.35;;
69565;SDS011;56777;55.930;37.524;2024-03-02T05:29:19;13.95;;;6.05;;
69565;SDS011;56777;55.930;37.524;2024-03-02T05:31:45;11.30;;;4.53;;
69565;SDS011;56777;55.930;37.524;2024-03-02T05:34:11;17.02;;;5.55;;
69565;SDS011;56777;55.930;37.524;2024-03-02T05:36:37;11.85;;;4.78;;
69565;SDS011;56777;55.930;37.524;2024-03-02T05:39:04;14.15;;;5.90;;
69565;SDS011;56777;55.930;37.524;2024-03-02T05:41:31;13.45;;;4.90;;
69565;SDS011;56777;55.930;37.524;2024-03-02T05:43:57;13.13;;;4.97;;
69565;SDS011;56777;55.930;37.524;2024-03-02T05:46:22;18.98;;;5.75;;
69565;SDS011;56777;55.930;37.524;2024-03-02T05:48:48;17.98;;;7.15;;
69565;SDS011;56777;55.930;37.524;2024-03-02T05:51:13;18.27;;;6.18;;
69565;SDS011;56777;55.930;37.524;2024-03-02T05:53:39;15.23;;;5.13;;
69565;SDS011;56777;55.930;37.524;2024-03-02T05:56:05;18.83;;;5.65;;
69565;SDS011;56777;55.930;37.524;2024-03-02T05:58:31;11.23;;;4.63;;
69565;SDS011;56777;55.930;37.524;2024-03-02T06:00:59;11.68;;;5.03;;
69565;SDS011;56777;55.930;37.524;2024-03-02T06:03:25;13.98;;;4.65;;
69565;SDS011;56777;55.930;37.524;2024-03-02T06:05:50;15.35;;;5.43;;
69565;SDS011;56777;55.930;37.524;2024-03-02T06:08:16;13.88;;;5.22;;
69565;SDS011;56777;55.930;37.524;2024-03-02T06:10:43;11.45;;;5.70;;
69565;SDS011;56777;55.930;37.524;2024-03-02T06:13:08;15.55;;;5.55;;
69565;SDS011;56777;55.930;37.524;2024-03-02T06:15:34;17.67;;;5.47;;
69565;SDS011;56777;55.930;37.524;2024-03-02T06:18:01;17.25;;;5.80;;
69565;SDS011;56777;55.930;37.524;2024-03-02T06:20:26;16.45;;;5.85;;
69565;SDS011;56777;55.930;37.524;2024-03-02T06:22:52;13.55;;;5.70;;
69565;SDS011;56777;55.930;37.524;2024-03-02T06:25:17;13.65;;;5.03;;
69565;SDS011;56777;55.930;37.524;2024-03-02T06:27:43;17.10;;;5.10;;
69565;SDS011;56777;55.930;37.524;2024-03-02T06:30:08;11.18;;;5.07;;
69565;SDS011;56777;55.930;37.524;2024-03-02T06:32:34;15.13;;;4.57;;
69565;SDS011;56777;55.930;37.524;2024-03-02T06:35:00;10.85;;;3.85;;
69565;SDS011;56777;55.930;37.524;2024-03-02T06:37:25;9.73;;;3.88;;
69565;SDS011;56777;55.930;37.524;2024-03-02T06:39:51;9.98;;;4.80;;
69565;SDS011;56777;55.930;37.524;2024-03-02T06:42:16;10.25;;;4.28;;
69565;SDS011;56777;55.930;37.524;2024-03-02T06:44:42;10.70;;;4.32;;
69565;SDS011;56777;55.930;37.524;2024-03-02T06:47:07;13.27;;;4.38;;
69565;SDS011;56777;55.930;37.524;2024-03-02T06:49:33;8.32;;;3.72;;
69565;SDS011;56777;55.930;37.524;2024-03-02T06:52:00;9.50;;;4.03;;
69565;SDS011;56777;55.930;37.524;2024-03-02T06:54:25;7.63;;;3.33;;
69565;SDS011;56777;55.930;37.524;2024-03-02T06:56:51;14.60;;;4.93;;
69565;SDS011;56777;55.930;37.524;2024-03-02T06:59:16;8.18;;;3.65;;
69565;SDS011;56777;55.930;37.524;2024-03-02T07:01:42;9.10;;;3.60;;
69565;SDS011;56777;55.930;37.524;2024-03-02T07:04:08;10.20;;;3.30;;
69565;SDS011;56777;55.930;37.524;2024-03-02T07:06:34;12.90;;;3.90;;
69565;SDS011;56777;55.930;37.524;2024-03-02T07:08:59;8.48;;;3.47;;
69565;SDS011;56777;55.930;37.524;2024-03-02T07:11:25;7.60;;;3.00;;
69565;SDS011;56777;55.930;37.524;2024-03-02T07:13:50;8.18;;;3.83;;
69565;SDS011;56777;55.930;37.524;2024-03-02T07:16:16;8.57;;;3.22;;
69565;SDS011;56777;55.930;37.524;2024-03-02T07:18:55;6.93;;;3.40;;
69565;SDS011;56777;55.930;37.524;2024-03-02T07:21:22;9.75;;;3.58;;
69565;SDS011;56777;55.930;37.524;2024-03-02T07:23:48;10.73;;;3.42;;
69565;SDS011;56777;55.930;37.524;2024-03-02T07:26:14;7.97;;;3.13;;
69565;SDS011;56777;55.930;37.524;2024-03-02T07:28:46;9.02;;;3.20;;
69565;SDS011;56777;55.930;37.524;2024-03-02T07:31:13;7.63;;;3.15;;
69565;SDS011;56777;55.930;37.524;2024-03-02T07:33:38;8.05;;;3.10;;
69565;SDS011;56777;55.930;37.524;2024-03-02T07:36:04;5.38;;;2.65;;
69565;SDS011;56777;55.930;37.524;2024-03-02T07:38:30;7.30;;;3.03;;
69565;SDS011;56777;55.930;37.524;2024-03-02T07:40:56;8.20;;;3.25;;
69565;SDS011;56777;55.930;37.524;2024-03-02T07:43:22;7.97;;;3.10;;
69565;SDS011;56777;55.930;37.524;2024-03-02T07:45:48;8.43;;;3.40;;
69565;SDS011;56777;55.930;37.524;2024-03-02T07:48:14;7.63;;;2.60;;
69565;SDS011;56777;55.930;37.524;2024-03-02T07:50:40;9.82;;;3.80;;
69565;SDS011;56777;55.930;37.524;2024-03-02T07:53:06;6.72;;;3.30;;
69565;SDS011;56777;55.930;37.524;2024-03-02T07:58:00;6.47;;;3.00;;
69565;SDS011;56777;55.930;37.524;2024-03-02T08:00:26;9.18;;;3.20;;
69565;SDS011;56777;55.930;37.524;2024-03-02T08:02:53;10.88;;;2.90;;
69565;SDS011;56777;55.930;37.524;2024-03-02T08:05:19;9.65;;;3.50;;
69565;SDS011;56777;55.930;37.524;2024-03-02T08:07:45;9.27;;;2.72;;
69565;SDS011;56777;55.930;37.524;2024-03-02T08:10:11;5.70;;;3.00;;
69565;SDS011;56777;55.930;37.524;2024-03-02T08:12:37;11.80;;;3.00;;
69565;SDS011;56777;55.930;37.524;2024-03-02T08:15:03;8.27;;;3.13;;
69565;SDS011;56777;55.930;37.524;2024-03-02T08:17:29;6.97;;;3.50;;
69565;SDS011;56777;55.930;37.524;2024-03-02T08:19:55;7.80;;;2.75;;
69565;SDS011;56777;55.930;37.524;2024-03-02T08:22:21;7.13;;;3.10;;
69565;SDS011;56777;55.930;37.524;2024-03-02T08:24:48;6.53;;;3.03;;
69565;SDS011;56777;55.930;37.524;2024-03-02T08:27:13;8.75;;;3.45;;
69565;SDS011;56777;55.930;37.524;2024-03-02T08:29:40;9.32;;;3.10;;
69565;SDS011;56777;55.930;37.524;2024-03-02T08:32:06;7.65;;;3.00;;
69565;SDS011;56777;55.930;37.524;2024-03-02T08:34:32;7.78;;;2.95;;
69565;SDS011;56777;55.930;37.524;2024-03-02T08:36:58;6.72;;;2.38;;
69565;SDS011;56777;55.930;37.524;2024-03-02T08:39:24;6.80;;;3.08;;
69565;SDS011;56777;55.930;37.524;2024-03-02T08:41:50;5.55;;;2.67;;
69565;SDS011;56777;55.930;37.524;2024-03-02T08:44:16;10.98;;;3.58;;
69565;SDS011;56777;55.930;37.524;2024-03-02T08:46:42;6.25;;;3.03;;
69565;SDS011;56777;55.930;37.524;2024-03-02T08:49:09;7.43;;;3.80;;
69565;SDS011;56777;55.930;37.524;2024-03-02T08:51:34;8.85;;;3.08;;
69565;SDS011;56777;55.930;37.524;2024-03-02T08:54:00;7.85;;;3.30;;
69565;SDS011;56777;55.930;37.524;2024-03-02T08:59:16;9.90;;;2.88;;
69565;SDS011;56777;55.930;37.524;2024-03-02T09:01:42;10.80;;;4.88;;
69565;SDS011;56777;55.930;37.524;2024-03-02T09:04:08;7.00;;;3.30;;
69565;SDS011;56777;55.930;37.524;2024-03-02T09:06:34;12.40;;;3.67;;
69565;SDS011;56777;55.930;37.524;2024-03-02T09:09:00;6.43;;;2.88;;
69565;SDS011;56777;55.930;37.524;2024-03-02T09:11:25;7.00;;;2.72;;
69565;SDS011;56777;55.930;37.524;2024-03-02T09:13:51;8.52;;;2.75;;
69565;SDS011;56777;55.930;37.524;2024-03-02T09:16:18;7.82;;;2.42;;
69565;SDS011;56777;55.930;37.524;2024-03-02T09:18:44;8.18;;;2.90;;
69565;SDS011;56777;55.930;37.524;2024-03-02T09:21:10;5.30;;;2.28;;
69565;SDS011;56777;55.930;37.524;2024-03-02T09:23:35;7.82;;;3.25;;
69565;SDS011;56777;55.930;37.524;2024-03-02T09:26:01;6.93;;;2.85;;
69565;SDS011;56777;55.930;37.524;2024-03-02T09:28:28;6.53;;;2.70;;
69565;SDS011;56777;55.930;37.524;2024-03-02T09:30:53;8.50;;;2.95;;
69565;SDS011;56777;55.930;37.524;2024-03-02T09:33:19;10.27;;;3.50;;
69565;SDS011;56777;55.930;37.524;2024-03-02T09:35:44;6.80;;;2.58;;
69565;SDS011;56777;55.930;37.524;2024-03-02T09:38:10;7.10;;;2.75;;
69565;SDS011;56777;55.930;37.524;2024-03-02T09:40:35;4.47;;;2.20;;
69565;SDS011;56777;55.930;37.524;2024-03-02T09:43:01;7.38;;;3.00;;
69565;SDS011;56777;55.930;37.524;2024-03-02T09:45:28;7.55;;;3.63;;
69565;SDS011;56777;55.930;37.524;2024-03-02T09:47:55;7.25;;;2.47;;
69565;SDS011;56777;55.930;37.524;2024-03-02T09:50:20;7.35;;;3.20;;
69565;SDS011;56777;55.930;37.524;2024-03-02T09:52:49;7.20;;;3.20;;
69565;SDS011;56777;55.930;37.524;2024-03-02T09:55:19;6.60;;;3.25;;
69565;SDS011;56777;55.930;37.524;2024-03-02T09:57:46;7.75;;;3.28;;
69565;SDS011;56777;55.930;37.524;2024-03-02T10:00:13;6.65;;;3.35;;
69565;SDS011;56777;55.930;37.524;2024-03-02T10:02:40;6.90;;;2.50;;
69565;SDS011;56777;55.930;37.524;2024-03-02T10:05:07;6.53;;;2.47;;
69565;SDS011;56777;55.930;37.524;2024-03-02T10:07:33;6.60;;;2.63;;
69565;SDS011;56777;55.930;37.524;2024-03-02T10:10:00;7.57;;;2.38;;
69565;SDS011;56777;55.930;37.524;2024-03-02T10:12:38;10.27;;;3.33;;
69565;SDS011;56777;55.930;37.524;2024-03-02T10:15:03;13.38;;;4.65;;
69565;SDS011;56777;55.930;37.524;2024-03-02T10:17:30;11.65;;;3.53;;
69565;SDS011;56777;55.930;37.524;2024-03-02T10:19:56;8.27;;;3.28;;
69565;SDS011;56777;55.930;37.524;2024-03-02T10:22:22;12.07;;;4.78;;
69565;SDS011;56777;55.930;37.524;2024-03-02T10:24:48;15.25;;;3.80;;
69565;SDS011;56777;55.930;37.524;2024-03-02T10:27:18;17.02;;;4.30;;
69565;SDS011;56777;55.930;37.524;2024-03-02T10:29:48;6.18;;;2.80;;
69565;SDS011;56777;55.930;37.524;2024-03-02T10:32:15;5.95;;;2.75;;
69565;SDS011;56777;55.930;37.524;2024-03-02T10:34:41;6.43;;;2.40;;
69565;SDS011;56777;55.930;37.524;2024-03-02T10:37:11;10.23;;;3.08;;
69565;SDS011;56777;55.930;37.524;2024-03-02T10:39:37;7.90;;;2.50;;
69565;SDS011;56777;55.930;37.524;2024-03-02T10:42:05;8.48;;;2.50;;
69565;SDS011;56777;55.930;37.524;2024-03-02T10:44:31;6.10;;;2.65;;
69565;SDS011;56777;55.930;37.524;2024-03-02T10:47:00;9.60;;;2.80;;
69565;SDS011;56777;55.930;37.524;2024-03-02T10:49:27;5.75;;;2.60;;
69565;SDS011;56777;55.930;37.524;2024-03-02T10:51:54;6.45;;;2.45;;
69565;SDS011;56777;55.930;37.524;2024-03-02T10:54:20;4.22;;;2.05;;
69565;SDS011;56777;55.930;37.524;2024-03-02T10:56:51;8.60;;;2.45;;
69565;SDS011;56777;55.930;37.524;2024-03-02T10:59:33;6.70;;;2.15;;
69565;SDS011;56777;55.930;37.524;2024-03-02T11:02:01;6.57;;;2.60;;
69565;SDS011;56777;55.930;37.524;2024-03-02T11:04:28;7.88;;;2.25;;
69565;SDS011;56777;55.930;37.524;2024-03-02T11:07:02;6.88;;;2.42;;
69565;SDS011;56777;55.930;37.524;2024-03-02T11:09:32;7.82;;;2.75;;
69565;SDS011;56777;55.930;37.524;2024-03-02T11:12:03;7.30;;;2.60;;
69565;SDS011;56777;55.930;37.524;2024-03-02T11:14:30;10.45;;;2.30;;
69565;SDS011;56777;55.930;37.524;2024-03-02T11:17:00;3.75;;;1.92;;
69565;SDS011;56777;55.930;37.524;2024-03-02T11:19:28;10.20;;;2.50;;
69565;SDS011;56777;55.930;37.524;2024-03-02T11:21:55;10.90;;;2.90;;
69565;SDS011;56777;55.930;37.524;2024-03-02T11:26:48;5.97;;;2.38;;
69565;SDS011;56777;55.930;37.524;2024-03-02T11:32:01;9.20;;;2.92;;
69565;SDS011;56777;55.930;37.524;2024-03-02T11:34:30;6.10;;;2.17;;
69565;SDS011;56777;55.930;37.524;2024-03-02T11:37:03;7.78;;;2.40;;
69565;SDS011;56777;55.930;37.524;2024-03-02T11:41:55;13.55;;;2.83;;
69565;SDS011;56777;55.930;37.524;2024-03-02T11:44:25;6.30;;;2.10;;
69565;SDS011;56777;55.930;37.524;2024-03-02T11:47:00;4.38;;;2.00;;
69565;SDS011;56777;55.930;37.524;2024-03-02T11:52:01;8.43;;;2.63;;
69565;SDS011;56777;55.930;37.524;2024-03-02T11:54:27;7.82;;;3.20;;
69565;SDS011;56777;55.930;37.524;2024-03-02T11:59:23;6.90;;;3.33;;
69565;SDS011;56777;55.930;37.524;2024-03-02T12:01:50;7.85;;;3.00;;
69565;SDS011;56777;55.930;37.524;2024-03-02T12:04:15;9.70;;;3.10;;
69565;SDS011;56777;55.930;37.524;2024-03-02T12:06:41;11.95;;;4.60;;
69565;SDS011;56777;55.930;37.524;2024-03-02T12:09:09;7.72;;;2.15;;
69565;SDS011;56777;55.930;37.524;2024-03-02T12:11:37;6.60;;;2.30;;
69565;SDS011;56777;55.930;37.524;2024-03-02T12:14:02;9.13;;;2.70;;
69565;SDS011;56777;55.930;37.524;2024-03-02T12:16:29;9.55;;;3.40;;
69565;SDS011;56777;55.930;37.524;2024-03-02T12:18:55;7.97;;;3.28;;
69565;SDS011;56777;55.930;37.524;2024-03-02T12:21:21;6.80;;;2.05;;
69565;SDS011;56777;55.930;37.524;2024-03-02T12:23:46;4.75;;;1.95;;
69565;SDS011;56777;55.930;37.524;2024-03-02T12:26:12;7.50;;;2.10;;
69565;SDS011;56777;55.930;37.524;2024-03-02T12:28:37;5.50;;;2.53;;
69565;SDS011;56777;55.930;37.524;2024-03-02T12:31:03;7.13;;;2.20;;
69565;SDS011;56777;55.930;37.524;2024-03-02T12:33:29;5.03;;;1.60;;
69565;SDS011;56777;55.930;37.524;2024-03-02T12:35:56;5.13;;;1.92;;
69565;SDS011;56777;55.930;37.524;2024-03-02T12:38:23;6.10;;;2.40;;
69565;SDS011;56777;55.930;37.524;2024-03-02T12:40:51;7.00;;;1.95;;
69565;SDS011;56777;55.930;37.524;2024-03-02T12:43:17;7.47;;;1.92;;
69565;SDS011;56777;55.930;37.524;2024-03-02T12:45:43;8.60;;;2.80;;
69565;SDS011;56777;55.930;37.524;2024-03-02T12:48:08;10.68;;;2.55;;
69565;SDS011;56777;55.930;37.524;2024-03-02T12:50:34;5.20;;;2.47;;
69565;SDS011;56777;55.930;37.524;2024-03-02T12:52:59;8.93;;;2.05;;
69565;SDS011;56777;55.930;37.524;2024-03-02T12:55:25;6.30;;;1.85;;
69565;SDS011;56777;55.930;37.524;2024-03-02T12:57:51;8.63;;;2.30;;
69565;SDS011;56777;55.930;37.524;2024-03-02T13:00:18;4.80;;;2.17;;
69565;SDS011;56777;55.930;37.524;2024-03-02T13:02:45;17.58;;;3.08;;
69565;SDS011;56777;55.930;37.524;2024-03-02T13:05:11;6.97;;;2.10;;
69565;SDS011;56777;55.930;37.524;2024-03-02T13:07:37;14.00;;;2.35;;
69565;SDS011;56777;55.930;37.524;2024-03-02T13:10:04;12.88;;;3.25;;
69565;SDS011;56777;55.930;37.524;2024-03-02T13:12:32;8.93;;;3.72;;
69565;SDS011;56777;55.930;37.524;2024-03-02T13:14:58;8.20;;;2.92;;
69565;SDS011;56777;55.930;37.524;2024-03-02T13:17:24;6.93;;;3.10;;
69565;SDS011;56777;55.930;37.524;2024-03-02T13:19:53;6.90;;;3.80;;
69565;SDS011;56777;55.930;37.524;2024-03-02T13:22:20;9.52;;;4.32;;
69565;SDS011;56777;55.930;37.524;2024-03-02T13:24:46;9.98;;;4.55;;
69565;SDS011;56777;55.930;37.524;2024-03-02T13:27:13;9.45;;;3.85;;
69565;SDS011;56777;55.930;37.524;2024-03-02T13:29:38;11.70;;;4.30;;
69565;SDS011;56777;55.930;37.524;2024-03-02T13:32:04;9.52;;;4.07;;
69565;SDS011;56777;55.930;37.524;2024-03-02T13:34:30;9.88;;;3.85;;
69565;SDS011;56777;55.930;37.524;2024-03-02T13:36:56;8.75;;;3.63;;
69565;SDS011;56777;55.930;37.524;2024-03-02T13:39:21;11.90;;;2.72;;
69565;SDS011;56777;55.930;37.524;2024-03-02T13:41:47;11.07;;;4.47;;
69565;SDS011;56777;55.930;37.524;2024-03-02T13:44:20;11.40;;;4.57;;
69565;SDS011;56777;55.930;37.524;2024-03-02T13:46:46;12.57;;;4.45;;
69565;SDS011;56777;55.930;37.524;2024-03-02T13:49:13;9.13;;;4.60;;
69565;SDS011;56777;55.930;37.524;2024-03-02T13:51:39;13.40;;;6.22;;
69565;SDS011;56777;55.930;37.524;2024-03-02T13:54:05;19.42;;;7.65;;
69565;SDS011;56777;55.930;37.524;2024-03-02T13:56:30;15.85;;;7.75;;
69565;SDS011;56777;55.930;37.524;2024-03-02T13:58:57;16.13;;;7.55;;
69565;SDS011;56777;55.930;37.524;2024-03-02T14:01:23;13.85;;;7.03;;
69565;SDS011;56777;55.930;37.524;2024-03-02T14:03:49;18.55;;;7.00;;
69565;SDS011;56777;55.930;37.524;2024-03-02T14:06:14;16.15;;;6.82;;
69565;SDS011;56777;55.930;37.524;2024-03-02T14:08:40;20.25;;;8.63;;
69565;SDS011;56777;55.930;37.524;2024-03-02T14:11:10;21.90;;;9.20;;
69565;SDS011;56777;55.930;37.524;2024-03-02T14:13:40;26.35;;;9.48;;
69565;SDS011;56777;55.930;37.524;2024-03-02T14:16:06;20.08;;;5.95;;
69565;SDS011;56777;55.930;37.524;2024-03-02T14:18:32;23.73;;;6.55;;
69565;SDS011;56777;55.930;37.524;2024-03-02T14:20:57;19.77;;;5.78;;
69565;SDS011;56777;55.930;37.524;2024-03-02T14:23:23;16.02;;;6.30;;
69565;SDS011;56777;55.930;37.524;2024-03-02T14:25:48;14.68;;;5.50;;
69565;SDS011;56777;55.930;37.524;2024-03-02T14:28:14;15.52;;;5.38;;
69565;SDS011;56777;55.930;37.524;2024-03-02T14:30:41;10.25;;;4.60;;
69565;SDS011;56777;55.930;37.524;2024-03-02T14:33:07;13.90;;;4.10;;
69565;SDS011;56777;55.930;37.524;2024-03-02T14:35:32;12.95;;;3.45;;
69565;SDS011;56777;55.930;37.524;2024-03-02T14:37:58;12.70;;;2.72;;
69565;SDS011;56777;55.930;37.524;2024-03-02T14:40:24;16.42;;;3.65;;
69565;SDS011;56777;55.930;37.524;2024-03-02T14:42:52;14.77;;;3.40;;
69565;SDS011;56777;55.930;37.524;2024-03-02T14:45:17;12.93;;;3.60;;
69565;SDS011;56777;55.930;37.524;2024-03-02T14:47:43;12.75;;;2.80;;
69565;SDS011;56777;55.930;37.524;2024-03-02T14:50:09;10.20;;;2.83;;